Carmel Valley, CA

11:07 AM PST on February 27, 2017 (GMT -0800)
Airport | | Change Station

Elev 541 ft 36.48 °N, 121.72 °W | Updated 50 seconds ago

Partly Cloudy
Partly Cloudy
52.0 °F
Feels Like 52.0 °F
N
2.7
Wind Variable Wind from SW
Gusts 4.9 mph

Today
High -- | Low -- °F
--% Chance of Precip.
Yesterday
High -- | Low -- °F
Precip. -- in
Pressure 30.02 in
Visibility 10.0 miles
Clouds Clear
Dew Point 38 °F
Humidity 59%
Rainfall 0.07 in
Snow Depth Not available.
6:39 AM 5:59 PM
New Moon, 2% visible
METAR KMRY 271854Z 31007KT 10SM CLR 11/06 A2998 RMK AO2 SLP165 T01060056
Pressure 30.02 in
Visibility 10.0 miles
Clouds Clear
Dew Point 38 °F
Humidity 59%
Rainfall 0.07 in
Snow Depth Not available.
6:39 AM 5:59 PM
New Moon, 2% visible
METAR KMRY 271854Z 31007KT 10SM CLR 11/06 A2998 RMK AO2 SLP165 T01060056

Get Your Daily Forecast Email!

Thanks for signing up!

Be on the lookout for a verification email in your inbox.

You'll start receiving the daily forecast at 8 AM.

×

10-Day Weather Forecast

Almanac

Astronomy

Feb. 27, 2017 Rise Set
Actual Time
Civil Twilight
Nautical Twilight
Astronomical Twilight
Moon
Length of Visible Light
Length of Day
Tomorrow will be .
, % of the Moon is Illuminated

Today's Extremes

State Highs State Lows

Community

WunderPhotos

Upload Photos

1,962,540 photos uploaded!

WunderBlog® & News

Nearby

Air Quality

  Air Quality AQ Index Pollutant
Not available.

Snow Depth

Station Depth Elevation

Earthquake Activity

City Distance Mag. Time & Date
Minimum magnitude displayed is 2.5.

Coastal Water Temperatures

Place Temperature

Stations

Nearby Weather Stations

Station Location Temp. Windchill Dew Point Humidity Wind Precip. Elev Updated Type
                   

Watches & Warnings

There are currently no watches in effect.